Time;durP1;ratioP1;P1;durP2;ratioP2;P2;SDS_P1;SDS_P2;PMS_P1;PMS_P2;Temp;Humidity;BMP_temperature;BMP_pressure;BME280_temperature;BME280_humidity;BME280_pressure;Samples;Min_cycle;Max_cycle;Signal;HPM_P1;HPM_P2
2022/10/17 00:00:26;;;;;;;4.13;1.45;;;19.90;63.30;;;;;;6264094;22;20028;-80
2022/10/17 00:02:54;;;;;;;3.38;1.13;;;19.90;63.20;;;;;;6262546;22;20020;-82
2022/10/17 00:05:20;;;;;;;3.00;1.30;;;19.90;63.30;;;;;;6263907;22;20020;-81
2022/10/17 00:07:46;;;;;;;7.18;1.35;;;19.90;63.20;;;;;;6264340;22;20473;-81
2022/10/17 00:10:12;;;;;;;2.72;1.30;;;19.90;63.20;;;;;;6262527;22;20398;-82
2022/10/17 00:12:38;;;;;;;4.50;1.95;;;19.90;63.20;;;;;;6264467;22;20463;-82
2022/10/17 00:15:06;;;;;;;3.70;1.60;;;19.90;63.20;;;;;;6235663;22;20020;-82
2022/10/17 00:17:32;;;;;;;3.97;1.48;;;19.90;63.20;;;;;;6264644;22;20020;-82
2022/10/17 00:19:59;;;;;;;3.58;1.27;;;20.00;63.30;;;;;;6264125;22;20015;-82
2022/10/17 00:22:26;;;;;;;1.98;1.17;;;19.90;63.20;;;;;;6238417;22;20085;-81
2022/10/17 00:24:51;;;;;;;5.38;1.58;;;19.90;63.30;;;;;;6211609;22;20030;-81
2022/10/17 00:27:17;;;;;;;2.58;1.30;;;19.90;63.30;;;;;;6264614;22;20347;-81
2022/10/17 00:29:48;;;;;;;4.15;1.30;;;19.90;63.20;;;;;;6234404;22;20467;-82
2022/10/17 00:32:14;;;;;;;2.75;1.30;;;19.90;63.20;;;;;;6262581;22;20011;-82
2022/10/17 00:34:40;;;;;;;2.70;1.30;;;19.90;63.30;;;;;;6235718;22;20023;-80
2022/10/17 00:37:06;;;;;;;4.72;1.30;;;19.90;63.20;;;;;;6264038;22;20098;-82
2022/10/17 00:39:31;;;;;;;2.63;1.33;;;19.90;63.20;;;;;;6236017;22;20054;-81
2022/10/17 00:41:57;;;;;;;2.10;1.20;;;19.80;63.10;;;;;;6237611;22;20020;-82
2022/10/17 00:44:29;;;;;;;2.72;1.20;;;19.80;63.10;;;;;;6236279;22;20408;-82
2022/10/17 00:46:59;;;;;;;3.08;1.20;;;19.80;63.10;;;;;;6259512;22;20471;-80
2022/10/17 00:49:28;;;;;;;3.15;1.17;;;19.80;63.10;;;;;;6264552;22;20198;-80
2022/10/17 00:51:58;;;;;;;2.50;1.38;;;19.80;63.10;;;;;;6210825;22;20539;-81
2022/10/17 00:54:29;;;;;;;3.78;1.27;;;19.80;63.10;;;;;;6236956;22;20020;-82
2022/10/17 00:56:55;;;;;;;2.42;1.30;;;19.80;63.10;;;;;;6262737;22;20015;-83
2022/10/17 00:59:22;;;;;;;2.85;1.23;;;19.80;63.10;;;;;;6264507;22;20016;-80
2022/10/17 01:02:00;;;;;;;3.42;1.20;;;19.80;63.10;;;;;;6261926;22;20049;-82
2022/10/17 01:04:26;;;;;;;3.03;1.35;;;19.80;63.00;;;;;;6262081;22;20089;-81
2022/10/17 01:06:52;;;;;;;2.78;1.30;;;19.80;63.00;;;;;;6236361;22;20023;-82
2022/10/17 01:09:17;;;;;;;4.95;1.52;;;19.80;63.80;;;;;;6261668;22;20060;-81
2022/10/17 01:11:55;;;;;;;3.90;1.38;;;19.80;63.00;;;;;;6235302;22;20020;-81
2022/10/17 01:15:02;;;;;;;2.20;1.23;;;19.80;63.00;;;;;;6263638;22;20023;-81
2022/10/17 01:17:54;;;;;;;3.58;2.05;;;19.80;63.00;;;;;;6167149;22;20431;-81
2022/10/17 01:20:32;;;;;;;3.58;1.13;;;19.80;63.00;;;;;;6236902;22;20059;-79
2022/10/17 01:23:25;;;;;;;4.20;1.20;;;19.80;63.00;;;;;;6236515;22;20055;-81
2022/10/17 01:26:08;;;;;;;4.03;1.40;;;19.80;63.00;;;;;;6236768;22;20012;-80
2022/10/17 01:28:46;;;;;;;3.17;1.33;;;19.80;63.00;;;;;;6235700;22;20042;-80
2022/10/17 01:31:21;;;;;;;3.92;1.48;;;19.80;63.00;;;;;;6263004;22;20057;-82
2022/10/17 01:33:57;;;;;;;3.20;1.10;;;19.70;62.90;;;;;;6236257;22;20082;-81
2022/10/17 01:36:38;;;;;;;7.22;1.25;;;19.80;62.90;;;;;;6263143;22;20024;-79
2022/10/17 01:39:10;;;;;;;2.03;1.00;;;19.80;62.90;;;;;;6262497;22;20074;-78
2022/10/17 01:42:27;;;;;;;3.47;1.30;;;19.70;62.80;;;;;;6233524;22;20042;-81
2022/10/17 01:45:07;;;;;;;2.35;1.10;;;19.80;62.90;;;;;;6197343;22;20493;-81
2022/10/17 01:47:33;;;;;;;3.80;1.30;;;19.80;62.90;;;;;;6260052;22;20012;-80
2022/10/17 01:50:11;;;;;;;3.38;1.45;;;19.70;62.80;;;;;;6260821;22;20020;-81
2022/10/17 01:52:43;;;;;;;2.92;1.02;;;19.80;62.90;;;;;;6236312;22;20019;-80
2022/10/17 01:55:13;;;;;;;3.35;1.20;;;19.80;62.90;;;;;;6232754;22;20077;-79
2022/10/17 01:57:43;;;;;;;3.22;1.35;;;19.70;62.90;;;;;;6234938;22;20091;-80
2022/10/17 02:00:14;;;;;;;3.13;1.13;;;19.70;62.80;;;;;;6260445;22;20074;-80
2022/10/17 02:02:42;;;;;;;3.17;1.50;;;19.70;62.90;;;;;;6233211;22;20016;-80
2022/10/17 02:05:08;;;;;;;2.28;1.20;;;19.80;62.90;;;;;;6264246;22;20016;-80
2022/10/17 02:07:34;;;;;;;2.38;1.17;;;19.80;62.90;;;;;;6263631;22;20352;-80
2022/10/17 02:10:00;;;;;;;2.80;1.30;;;19.70;62.80;;;;;;6262955;22;20028;-80
2022/10/17 02:13:30;;;;;;;3.78;1.30;;;19.70;62.80;;;;;;6263567;22;20011;-79
2022/10/17 02:16:18;;;;;;;2.00;1.13;;;19.70;62.80;;;;;;6110258;23;20359;-80
2022/10/17 02:18:47;;;;;;;1.83;1.30;;;19.70;62.80;;;;;;6255509;22;20645;-79
2022/10/17 02:21:12;;;;;;;2.92;1.55;;;19.70;62.80;;;;;;6210540;22;20445;-82
2022/10/17 02:23:53;;;;;;;2.00;1.30;;;19.70;62.90;;;;;;6236270;22;20020;-80
2022/10/17 02:26:37;;;;;;;2.15;1.30;;;19.70;62.80;;;;;;6235375;22;21064;-81
2022/10/17 02:29:21;;;;;;;3.13;1.50;;;19.70;62.80;;;;;;6236376;22;20039;-79
2022/10/17 02:31:54;;;;;;;3.25;1.20;;;19.70;62.80;;;;;;6261543;22;20011;-79
2022/10/17 02:34:41;;;;;;;2.70;1.13;;;19.70;62.80;;;;;;6257744;22;20118;-80
2022/10/17 02:37:09;;;;;;;2.05;1.08;;;19.80;62.80;;;;;;6261478;22;20019;-82
2022/10/17 02:39:37;;;;;;;3.95;1.30;;;19.70;62.80;;;;;;6231464;22;20012;-80
2022/10/17 02:42:08;;;;;;;2.90;1.17;;;19.70;62.80;;;;;;6231956;22;20491;-79
2022/10/17 02:44:36;;;;;;;2.08;1.00;;;19.80;62.90;;;;;;6260618;22;20246;-79
2022/10/17 02:47:25;;;;;;;2.55;1.30;;;19.70;62.80;;;;;;6233139;22;20026;-80
2022/10/17 02:49:53;;;;;;;1.42;0.93;;;19.70;62.70;;;;;;6164096;22;20023;-80
2022/10/17 02:52:39;;;;;;;2.13;0.98;;;19.70;62.80;;;;;;6261395;22;20113;-80
2022/10/17 02:55:44;;;;;;;1.73;1.17;;;19.70;62.80;;;;;;6262081;22;20039;-79
2022/10/17 02:58:20;;;;;;;1.95;1.10;;;19.70;62.70;;;;;;6110074;23;20029;-79
2022/10/17 03:00:45;;;;;;;1.77;1.20;;;19.80;62.80;;;;;;6241717;22;20053;-80
2022/10/17 03:03:26;;;;;;;3.58;1.13;;;19.70;62.70;;;;;;6235122;22;20090;-79
2022/10/17 03:05:52;;;;;;;2.95;1.33;;;19.70;62.70;;;;;;6259926;22;20096;-78
2022/10/17 03:08:18;;;;;;;2.83;1.30;;;19.70;62.70;;;;;;6261605;22;20008;-82
2022/10/17 03:10:44;;;;;;;1.98;1.15;;;19.70;62.80;;;;;;6232741;22;20023;-79
2022/10/17 03:13:10;;;;;;;2.60;1.20;;;19.70;62.70;;;;;;6233871;22;20023;-82
2022/10/17 03:15:35;;;;;;;2.05;1.27;;;19.70;62.70;;;;;;6233930;22;20016;-81
2022/10/17 03:18:01;;;;;;;2.28;1.38;;;19.80;62.70;;;;;;6261675;22;20411;-80
2022/10/17 03:20:27;;;;;;;3.58;1.45;;;19.70;62.70;;;;;;6208457;22;20086;-82
2022/10/17 03:22:52;;;;;;;1.65;1.10;;;19.80;62.70;;;;;;6261042;22;20293;-82
2022/10/17 03:25:18;;;;;;;1.58;1.10;;;19.70;62.70;;;;;;6262969;22;20561;-82
2022/10/17 03:27:43;;;;;;;1.98;1.10;;;19.70;62.70;;;;;;6233646;22;20015;-81
2022/10/17 03:30:10;;;;;;;2.90;1.20;;;19.80;62.70;;;;;;6234776;22;20030;-79
2022/10/17 03:32:35;;;;;;;3.05;1.20;;;19.70;62.70;;;;;;6261047;22;20019;-82
2022/10/17 03:35:01;;;;;;;3.47;1.20;;;19.70;62.60;;;;;;6234955;22;20015;-80
2022/10/17 03:37:27;;;;;;;1.92;1.10;;;19.70;62.70;;;;;;6262201;22;20592;-82
2022/10/17 03:39:52;;;;;;;2.70;1.30;;;19.70;62.60;;;;;;6260988;22;20024;-83
2022/10/17 03:42:18;;;;;;;1.80;1.30;;;19.70;62.60;;;;;;6262167;22;20110;-78
2022/10/17 03:44:44;;;;;;;2.83;1.30;;;19.70;62.60;;;;;;6263222;22;20117;-79
2022/10/17 03:47:09;;;;;;;2.75;1.20;;;19.70;62.60;;;;;;6262728;22;20117;-79
2022/10/17 03:49:35;;;;;;;1.65;1.20;;;19.70;62.60;;;;;;6263150;22;20023;-80
2022/10/17 03:52:00;;;;;;;2.05;1.00;;;19.70;62.60;;;;;;6263221;22;20019;-80
2022/10/17 03:54:26;;;;;;;2.75;1.20;;;19.70;62.60;;;;;;6263853;22;20019;-81
2022/10/17 03:56:52;;;;;;;2.03;1.30;;;19.70;62.60;;;;;;6238502;22;20348;-80
2022/10/17 03:59:17;;;;;;;1.75;1.10;;;19.70;62.60;;;;;;6237454;22;20032;-79
2022/10/17 04:01:43;;;;;;;1.50;1.10;;;19.70;62.60;;;;;;6237796;22;20016;-80
2022/10/17 04:04:09;;;;;;;2.40;1.15;;;19.70;62.60;;;;;;6264242;22;20054;-80
2022/10/17 04:06:36;;;;;;;1.83;1.13;;;19.70;62.60;;;;;;6237071;22;20020;-79
2022/10/17 04:09:02;;;;;;;1.77;1.10;;;19.70;62.60;;;;;;6265650;22;20343;-80
2022/10/17 04:11:28;;;;;;;2.30;1.27;;;19.70;62.60;;;;;;6235632;22;20032;-80
2022/10/17 04:13:55;;;;;;;3.03;1.27;;;19.70;62.60;;;;;;6239171;22;20058;-80
2022/10/17 04:16:21;;;;;;;2.00;1.05;;;19.70;62.60;;;;;;6261693;22;20019;-79
2022/10/17 04:18:52;;;;;;;2.42;1.45;;;19.70;62.60;;;;;;6265545;22;20047;-80
2022/10/17 04:21:18;;;;;;;4.50;1.13;;;19.70;62.60;;;;;;6235956;22;20448;-80
2022/10/17 04:23:43;;;;;;;1.83;1.33;;;19.70;62.60;;;;;;6238415;22;20018;-79
2022/10/17 04:26:09;;;;;;;2.38;1.23;;;19.70;62.60;;;;;;6264714;22;20099;-82
2022/10/17 04:28:35;;;;;;;2.97;1.35;;;19.70;62.60;;;;;;6237524;22;20020;-82
2022/10/17 04:31:07;;;;;;;2.20;1.30;;;19.70;62.60;;;;;;6237695;22;20039;-80
2022/10/17 04:33:33;;;;;;;3.67;1.20;;;19.70;62.60;;;;;;6237798;22;20022;-79
2022/10/17 04:36:04;;;;;;;2.45;1.20;;;19.70;62.60;;;;;;6264922;22;20024;-82
2022/10/17 04:38:30;;;;;;;2.45;1.50;;;19.70;62.60;;;;;;6264381;22;20025;-80
2022/10/17 04:40:57;;;;;;;2.00;1.17;;;19.70;62.60;;;;;;6211309;22;20701;-79
2022/10/17 04:43:23;;;;;;;2.92;1.42;;;19.70;62.60;;;;;;6263394;22;20012;-78
2022/10/17 04:45:48;;;;;;;2.63;1.30;;;19.70;62.60;;;;;;6263477;22;20102;-82
2022/10/17 04:48:14;;;;;;;1.88;1.13;;;19.70;62.60;;;;;;6236569;22;20103;-82
2022/10/17 04:50:39;;;;;;;2.90;1.30;;;19.70;62.60;;;;;;6236786;22;20015;-80
2022/10/17 04:53:05;;;;;;;3.10;1.27;;;19.70;62.60;;;;;;6237454;22;20032;-80
2022/10/17 04:55:30;;;;;;;2.55;1.33;;;19.70;62.60;;;;;;6263496;22;20012;-79
2022/10/17 04:57:56;;;;;;;1.63;1.10;;;19.70;62.60;;;;;;6264055;22;20019;-82
2022/10/17 05:00:22;;;;;;;1.30;1.15;;;19.70;62.60;;;;;;6235904;22;20787;-81
2022/10/17 05:02:47;;;;;;;3.60;1.40;;;19.70;62.70;;;;;;6238125;22;20099;-81
2022/10/17 05:05:13;;;;;;;2.13;1.20;;;19.70;62.70;;;;;;6237034;22;20024;-78
2022/10/17 05:07:39;;;;;;;1.77;1.25;;;19.70;62.70;;;;;;6264341;22;20047;-80
2022/10/17 05:10:06;;;;;;;2.58;1.20;;;19.70;62.70;;;;;;6263511;22;20026;-79
2022/10/17 05:12:31;;;;;;;3.28;1.38;;;19.70;62.70;;;;;;6263719;22;20094;-77
2022/10/17 05:14:57;;;;;;;2.08;1.52;;;19.70;62.80;;;;;;6262024;22;20097;-81
2022/10/17 05:17:22;;;;;;;1.60;1.40;;;19.80;62.90;;;;;;6264359;22;20062;-82
2022/10/17 05:19:48;;;;;;;4.85;1.30;;;19.70;62.80;;;;;;6263120;22;20024;-79
2022/10/17 05:22:14;;;;;;;1.92;1.40;;;19.70;63.00;;;;;;6266385;22;20015;-77
2022/10/17 05:24:39;;;;;;;1.95;1.38;;;19.70;63.20;;;;;;6263642;22;20102;-79
2022/10/17 05:27:05;;;;;;;3.40;1.50;;;19.70;63.30;;;;;;6264585;22;20026;-77
2022/10/17 05:29:30;;;;;;;4.72;1.67;;;19.70;63.40;;;;;;6263347;22;20032;-77
2022/10/17 05:31:56;;;;;;;2.95;1.20;;;19.70;63.40;;;;;;6264013;22;20481;-78
2022/10/17 05:34:23;;;;;;;3.97;1.50;;;19.70;63.50;;;;;;6263508;22;20037;-79
2022/10/17 05:36:48;;;;;;;3.30;1.30;;;19.80;63.60;;;;;;6264153;22;20112;-79
2022/10/17 05:39:18;;;;;;;2.15;1.30;;;19.70;64.00;;;;;;6235553;22;20051;-78
2022/10/17 05:41:44;;;;;;;3.05;1.60;;;19.70;63.80;;;;;;6262988;22;20477;-78
2022/10/17 05:44:10;;;;;;;5.85;1.63;;;19.70;63.90;;;;;;6235211;22;20703;-74
2022/10/17 05:46:36;;;;;;;6.00;1.77;;;19.80;63.90;;;;;;6231653;22;20020;-75
2022/10/17 05:49:01;;;;;;;4.82;1.60;;;19.80;64.70;;;;;;6262841;22;20046;-75
2022/10/17 05:51:27;;;;;;;6.80;1.77;;;19.70;64.00;;;;;;6262730;22;20019;-74
2022/10/17 05:53:52;;;;;;;3.70;1.65;;;19.80;64.20;;;;;;6263391;22;20020;-82
2022/10/17 05:56:19;;;;;;;5.57;1.60;;;19.80;64.40;;;;;;6260946;22;20095;-74
2022/10/17 05:58:45;;;;;;;5.40;1.80;;;19.80;64.50;;;;;;6261896;22;20026;-74
2022/10/17 06:01:11;;;;;;;4.03;1.67;;;19.80;64.50;;;;;;6262392;22;20019;-74
2022/10/17 06:03:37;;;;;;;5.70;1.65;;;19.80;64.60;;;;;;6208437;22;20018;-76
2022/10/17 06:06:08;;;;;;;6.25;1.75;;;19.80;64.70;;;;;;6262611;22;20015;-75
2022/10/17 06:08:33;;;;;;;2.47;1.58;;;19.80;64.70;;;;;;6262298;22;20024;-73
2022/10/17 06:10:59;;;;;;;9.23;2.22;;;19.80;64.80;;;;;;6265991;22;20499;-73
2022/10/17 06:13:25;;;;;;;8.35;1.80;;;19.80;64.80;;;;;;6269801;22;20057;-75
2022/10/17 06:15:51;;;;;;;3.00;1.75;;;19.80;64.80;;;;;;6263166;22;20012;-73
2022/10/17 06:18:17;;;;;;;2.33;1.55;;;19.70;64.70;;;;;;6234804;22;20030;-74
2022/10/17 06:20:42;;;;;;;3.70;1.60;;;19.80;64.80;;;;;;6263317;22;20340;-71
2022/10/17 06:23:09;;;;;;;3.15;1.60;;;19.80;64.80;;;;;;6237889;22;20054;-71
2022/10/17 06:25:35;;;;;;;5.18;1.90;;;19.70;64.70;;;;;;6261168;22;20114;-71
2022/10/17 06:28:00;;;;;;;2.05;1.40;;;19.80;64.70;;;;;;6264649;22;20042;-74
2022/10/17 06:30:26;;;;;;;3.00;1.50;;;19.80;64.70;;;;;;6261883;22;20340;-71
2022/10/17 06:32:52;;;;;;;5.18;2.05;;;19.80;64.80;;;;;;6261616;22;20401;-72
2022/10/17 06:35:18;;;;;;;3.35;2.10;;;19.70;64.70;;;;;;6263058;22;20008;-72
2022/10/17 06:37:44;;;;;;;4.22;2.20;;;19.80;65.00;;;;;;6235863;22;20450;-72
2022/10/17 06:40:11;;;;;;;5.00;1.90;;;19.70;65.00;;;;;;6264227;22;20046;-71
2022/10/17 06:42:38;;;;;;;4.00;2.00;;;19.80;65.20;;;;;;6262708;22;20027;-71
2022/10/17 06:45:04;;;;;;;4.15;2.42;;;19.80;65.20;;;;;;6237601;22;20034;-72
2022/10/17 06:47:29;;;;;;;5.32;2.10;;;19.80;65.30;;;;;;6262686;22;20539;-73
2022/10/17 06:49:55;;;;;;;4.72;2.40;;;19.80;65.40;;;;;;6264367;22;20054;-74
2022/10/17 06:52:20;;;;;;;10.93;2.17;;;19.80;65.50;;;;;;6235896;22;20026;-73
2022/10/17 06:54:46;;;;;;;4.28;2.10;;;19.80;65.60;;;;;;6263076;22;20046;-72
2022/10/17 06:57:12;;;;;;;5.00;2.20;;;19.80;65.60;;;;;;6263084;22;20016;-71
2022/10/17 06:59:37;;;;;;;4.55;1.95;;;19.80;65.70;;;;;;6236124;22;20016;-74
2022/10/17 07:02:04;;;;;;;16.05;2.50;;;19.80;65.60;;;;;;6262456;22;20022;-70
2022/10/17 07:04:29;;;;;;;5.32;2.60;;;19.80;65.60;;;;;;6209117;22;20082;-73
2022/10/17 07:06:55;;;;;;;6.53;2.38;;;19.80;65.70;;;;;;6262591;22;20020;-73
2022/10/17 07:09:21;;;;;;;6.10;2.40;;;19.80;65.80;;;;;;6209531;22;20470;-75
2022/10/17 07:11:47;;;;;;;6.65;2.90;;;19.90;66.00;;;;;;6264381;22;20086;-73
2022/10/17 07:14:12;;;;;;;9.45;3.67;;;19.90;66.10;;;;;;6235323;22;20415;-72
2022/10/17 07:16:38;;;;;;;4.40;2.30;;;19.90;66.10;;;;;;6235862;22;20027;-74
2022/10/17 07:19:04;;;;;;;3.28;2.40;;;19.90;66.10;;;;;;6236850;22;20108;-72
2022/10/17 07:21:30;;;;;;;13.43;2.78;;;19.90;66.10;;;;;;6262376;22;20317;-72
2022/10/17 07:23:55;;;;;;;7.43;2.67;;;19.90;66.00;;;;;;6263656;22;20018;-71
2022/10/17 07:26:21;;;;;;;4.78;2.80;;;20.00;66.10;;;;;;6234133;22;20097;-70
2022/10/17 07:28:52;;;;;;;5.13;2.70;;;19.90;66.00;;;;;;6263203;22;20024;-73
2022/10/17 07:31:19;;;;;;;7.28;3.03;;;19.90;66.00;;;;;;6237410;22;20034;-72
2022/10/17 07:33:45;;;;;;;12.38;3.03;;;19.90;66.10;;;;;;6265310;22;20030;-71
2022/10/17 07:36:12;;;;;;;14.82;2.88;;;19.90;66.10;;;;;;6265658;22;20019;-73
2022/10/17 07:38:38;;;;;;;13.38;2.92;;;19.90;66.30;;;;;;6264391;22;20065;-72
2022/10/17 07:41:06;;;;;;;7.68;2.80;;;19.90;66.20;;;;;;6266079;22;20020;-76
2022/10/17 07:43:33;;;;;;;8.13;2.97;;;19.90;66.30;;;;;;6264323;22;20494;-74
2022/10/17 07:46:00;;;;;;;9.43;2.88;;;20.00;66.30;;;;;;6265295;22;20095;-74
2022/10/17 07:48:26;;;;;;;4.93;2.88;;;20.00;66.30;;;;;;6264279;22;20016;-73
2022/10/17 07:50:51;;;;;;;7.25;3.00;;;20.00;66.40;;;;;;6264854;22;20392;-74
2022/10/17 07:53:18;;;;;;;6.45;2.83;;;20.00;66.40;;;;;;6264744;22;20019;-74
2022/10/17 07:55:45;;;;;;;4.63;3.05;;;20.00;66.40;;;;;;6263069;22;20038;-74
2022/10/17 07:58:11;;;;;;;9.35;3.10;;;20.00;66.50;;;;;;6266804;22;20015;-74
2022/10/17 08:00:37;;;;;;;6.82;3.25;;;20.00;66.70;;;;;;6263766;22;20403;-74
2022/10/17 08:03:04;;;;;;;5.93;3.17;;;20.00;66.80;;;;;;6265795;22;20339;-74
2022/10/17 08:05:30;;;;;;;5.90;3.53;;;20.00;67.10;;;;;;6263609;22;20015;-75
2022/10/17 08:07:55;;;;;;;8.48;3.30;;;20.00;67.10;;;;;;6266156;22;20057;-74
2022/10/17 08:10:26;;;;;;;9.63;3.60;;;20.00;67.10;;;;;;6264108;22;20106;-74
2022/10/17 08:12:56;;;;;;;5.30;3.30;;;20.00;67.10;;;;;;6264772;22;20020;-75
2022/10/17 08:15:22;;;;;;;7.90;3.33;;;20.00;67.10;;;;;;6237168;22;20764;-74
2022/10/17 08:17:48;;;;;;;4.80;3.33;;;20.00;67.10;;;;;;6264737;22;20016;-75
2022/10/17 08:20:14;;;;;;;5.60;3.58;;;20.00;67.10;;;;;;6238459;22;20022;-75
2022/10/17 08:22:39;;;;;;;5.80;3.38;;;20.00;67.20;;;;;;6236828;22;20016;-74
2022/10/17 08:25:06;;;;;;;14.05;3.97;;;20.00;67.20;;;;;;6263864;22;20011;-73
2022/10/17 08:27:32;;;;;;;6.35;3.65;;;20.00;67.20;;;;;;6263735;22;20015;-75
2022/10/17 08:29:58;;;;;;;8.48;3.40;;;20.00;67.20;;;;;;6238272;22;20012;-74
2022/10/17 08:32:25;;;;;;;5.18;3.45;;;20.00;67.30;;;;;;6264842;22;20016;-74
2022/10/17 08:34:55;;;;;;;4.70;3.57;;;20.00;67.30;;;;;;6237847;22;20095;-73
2022/10/17 08:37:22;;;;;;;6.43;3.80;;;20.00;67.30;;;;;;6265046;22;20020;-75
2022/10/17 08:39:47;;;;;;;7.63;3.53;;;20.00;67.30;;;;;;6261253;22;20015;-75
2022/10/17 08:42:32;;;;;;;6.35;3.63;;;20.00;67.30;;;;;;6264839;22;20502;-74
2022/10/17 08:45:18;;;;;;;6.80;3.60;;;20.00;67.20;;;;;;6238094;22;20035;-74
2022/10/17 08:47:51;;;;;;;7.07;3.33;;;20.00;67.20;;;;;;6236897;22;20076;-74
2022/10/17 08:50:31;;;;;;;6.25;3.90;;;20.00;67.30;;;;;;6237670;22;20019;-74
2022/10/17 08:53:14;;;;;;;5.90;3.60;;;20.00;67.30;;;;;;6237174;22;20343;-75
2022/10/17 08:55:50;;;;;;;6.68;3.63;;;20.00;67.40;;;;;;6264917;22;20019;-75
2022/10/17 08:58:25;;;;;;;7.93;3.80;;;20.00;67.40;;;;;;6265615;22;20019;-74
2022/10/17 09:01:02;;;;;;;5.68;3.45;;;20.00;67.40;;;;;;6262756;22;20091;-74
2022/10/17 09:03:49;;;;;;;6.17;3.77;;;20.00;67.40;;;;;;6265896;22;20440;-74
2022/10/17 09:06:24;;;;;;;5.78;3.55;;;20.00;67.40;;;;;;6236346;22;20422;-75
2022/10/17 09:08:55;;;;;;;6.60;3.45;;;20.00;67.40;;;;;;6265126;22;20485;-73
2022/10/17 09:11:37;;;;;;;7.15;3.95;;;20.00;67.40;;;;;;6237560;22;20050;-73
2022/10/17 09:14:37;;;;;;;6.50;3.55;;;20.00;67.50;;;;;;6236716;22;20051;-74
2022/10/17 09:17:26;;;;;;;4.82;3.35;;;20.00;67.40;;;;;;6264066;22;20012;-74
2022/10/17 09:20:10;;;;;;;5.22;3.50;;;20.00;68.20;;;;;;6265503;22;20455;-74
2022/10/17 09:22:55;;;;;;;7.60;3.30;;;20.00;67.50;;;;;;6236868;22;20024;-75
2022/10/17 09:25:21;;;;;;;5.68;3.47;;;20.00;67.50;;;;;;6237209;22;20039;-73
2022/10/17 09:27:50;;;;;;;4.60;3.70;;;20.00;67.60;;;;;;6263407;22;20071;-74
2022/10/17 09:30:22;;;;;;;5.40;3.30;;;20.00;67.60;;;;;;6264772;22;20111;-75
2022/10/17 09:32:49;;;;;;;7.13;4.43;;;20.00;67.70;;;;;;6236575;22;20470;-74
2022/10/17 09:35:14;;;;;;;5.82;3.40;;;20.00;67.70;;;;;;6210979;22;20047;-75
2022/10/17 09:37:41;;;;;;;5.60;3.22;;;20.00;67.80;;;;;;6265116;22;20047;-74
2022/10/17 09:40:22;;;;;;;4.30;3.10;;;20.00;67.80;;;;;;6235514;22;20486;-75
2022/10/17 09:42:50;;;;;;;4.72;3.47;;;20.00;67.80;;;;;;6264972;22;20016;-75
2022/10/17 09:45:21;;;;;;;7.97;3.10;;;20.00;67.80;;;;;;6237338;22;20043;-76
2022/10/17 09:48:03;;;;;;;6.25;3.20;;;20.10;67.90;;;;;;6263979;22;20097;-76
2022/10/17 09:50:33;;;;;;;5.15;3.60;;;20.10;68.00;;;;;;6237675;22;20023;-76
2022/10/17 09:53:39;;;;;;;5.90;3.40;;;20.10;68.00;;;;;;6264330;22;20016;-76
2022/10/17 09:56:12;;;;;;;5.85;3.40;;;20.10;68.10;;;;;;6205522;22;20375;-76
2022/10/17 09:58:46;;;;;;;8.82;3.53;;;20.10;68.00;;;;;;6237024;22;20103;-76
2022/10/17 10:01:21;;;;;;;3.60;3.05;;;20.10;68.10;;;;;;6263464;22;20088;-76
2022/10/17 10:03:48;;;;;;;7.32;3.28;;;20.10;68.10;;;;;;6264602;22;20101;-76
2022/10/17 10:06:19;;;;;;;4.80;3.28;;;20.10;68.10;;;;;;6235590;22;20062;-79
2022/10/17 10:09:02;;;;;;;6.88;3.75;;;20.10;68.10;;;;;;6264521;22;20077;-77
2022/10/17 10:11:50;;;;;;;4.50;3.15;;;20.00;68.00;;;;;;6236241;22;20024;-76
2022/10/17 10:14:22;;;;;;;6.22;3.30;;;20.10;68.00;;;;;;6263391;22;20012;-75
2022/10/17 10:16:50;;;;;;;6.22;3.42;;;20.10;68.10;;;;;;6265005;22;20008;-75
2022/10/17 10:19:32;;;;;;;5.30;3.65;;;20.10;68.20;;;;;;6263251;22;20499;-75
2022/10/17 10:22:02;;;;;;;8.23;3.45;;;20.10;68.10;;;;;;6236771;22;20514;-74
2022/10/17 10:24:29;;;;;;;4.70;3.28;;;20.00;68.20;;;;;;6264272;22;20616;-77
2022/10/17 10:26:58;;;;;;;4.03;3.42;;;20.10;68.20;;;;;;6235870;22;20020;-74
2022/10/17 10:29:35;;;;;;;5.05;3.30;;;20.10;68.20;;;;;;6265027;22;20018;-78
2022/10/17 10:32:23;;;;;;;11.38;3.58;;;20.10;68.20;;;;;;6235617;22;20028;-77
2022/10/17 10:35:19;;;;;;;7.13;3.88;;;20.10;68.20;;;;;;6237460;22;20035;-75
2022/10/17 10:37:52;;;;;;;4.30;3.13;;;20.00;68.20;;;;;;6236890;22;20046;-75
2022/10/17 10:40:36;;;;;;;7.18;3.50;;;20.00;68.20;;;;;;6235755;22;20012;-77
2022/10/17 10:43:03;;;;;;;10.32;3.95;;;20.10;68.40;;;;;;6264267;22;20107;-78
2022/10/17 10:45:35;;;;;;;7.35;3.85;;;20.00;68.40;;;;;;6262467;22;20455;-76
2022/10/17 10:48:18;;;;;;;9.43;3.95;;;20.10;68.50;;;;;;6264037;22;20453;-76
2022/10/17 10:50:49;;;;;;;6.93;3.70;;;20.00;68.50;;;;;;6236447;22;20023;-77
2022/10/17 10:53:47;;;;;;;5.18;3.80;;;20.10;68.60;;;;;;6236709;22;20026;-77
2022/10/17 10:56:25;;;;;;;6.18;4.15;;;20.00;68.50;;;;;;6264401;22;20016;-77
2022/10/17 10:58:55;;;;;;;5.00;3.58;;;20.00;68.50;;;;;;6236179;22;20392;-75
2022/10/17 11:01:43;;;;;;;4.18;3.75;;;20.00;68.50;;;;;;6236828;22;20011;-76
2022/10/17 11:05:07;;;;;;;4.93;3.83;;;20.10;68.60;;;;;;6263900;22;20016;-78
2022/10/17 11:07:40;;;;;;;7.45;4.10;;;20.00;68.50;;;;;;6085502;23;20514;-74
2022/10/17 11:10:31;;;;;;;7.03;3.67;;;20.10;68.60;;;;;;6085984;23;20046;-75
2022/10/17 11:13:05;;;;;;;6.65;3.75;;;20.00;68.50;;;;;;6215976;22;20463;-76
2022/10/17 11:15:54;;;;;;;8.68;4.13;;;20.00;68.60;;;;;;6262824;22;20024;-74
2022/10/17 11:18:40;;;;;;;5.55;4.20;;;20.00;68.60;;;;;;6265341;22;20682;-78
2022/10/17 11:21:27;;;;;;;6.38;3.85;;;20.00;68.60;;;;;;6264163;22;20045;-76
2022/10/17 11:24:02;;;;;;;4.93;4.10;;;20.00;68.60;;;;;;6234136;22;20329;-76
2022/10/17 11:26:31;;;;;;;5.10;3.92;;;20.00;68.60;;;;;;6237487;22;20058;-77
2022/10/17 11:29:00;;;;;;;8.05;4.50;;;20.00;68.60;;;;;;6262668;22;20031;-74
2022/10/17 11:31:30;;;;;;;6.15;3.75;;;20.00;69.40;;;;;;6264330;22;20527;-76
2022/10/17 11:34:03;;;;;;;5.10;3.72;;;20.10;68.70;;;;;;6263045;22;20095;-76
2022/10/17 11:36:32;;;;;;;8.73;3.88;;;20.00;68.70;;;;;;6264236;22;20011;-74
2022/10/17 11:39:04;;;;;;;6.82;3.65;;;20.10;68.80;;;;;;6236669;22;20024;-76
2022/10/17 11:41:51;;;;;;;10.18;4.25;;;20.10;68.80;;;;;;6263116;22;20073;-75
2022/10/17 11:44:26;;;;;;;7.38;3.97;;;20.10;68.70;;;;;;6263696;22;20448;-74
2022/10/17 11:47:20;;;;;;;7.00;3.83;;;20.10;68.70;;;;;;6236005;22;20498;-74
2022/10/17 11:49:50;;;;;;;5.82;3.72;;;20.10;68.70;;;;;;6209928;22;20081;-75
2022/10/17 11:52:34;;;;;;;7.32;4.65;;;20.00;68.70;;;;;;6236531;22;20436;-75
2022/10/17 11:55:16;;;;;;;4.88;3.53;;;20.10;68.70;;;;;;6234735;22;20022;-78
2022/10/17 11:57:51;;;;;;;5.25;4.07;;;20.10;68.80;;;;;;6263742;22;20031;-76
2022/10/17 12:00:29;;;;;;;6.82;3.35;;;20.10;68.80;;;;;;6236977;22;20039;-78
2022/10/17 12:03:44;;;;;;;6.45;4.03;;;20.10;68.80;;;;;;6235360;22;20094;-74
2022/10/17 12:06:19;;;;;;;8.35;4.00;;;20.10;68.70;;;;;;6153558;22;20103;-76
2022/10/17 12:08:50;;;;;;;6.65;4.10;;;20.10;68.70;;;;;;6263500;22;20024;-76
2022/10/17 12:11:49;;;;;;;5.85;4.07;;;20.10;68.70;;;;;;6235352;22;20028;-77
2022/10/17 12:14:45;;;;;;;5.38;4.10;;;20.10;68.60;;;;;;6228414;22;20031;-79
2022/10/17 12:17:37;;;;;;;5.22;4.40;;;20.10;68.60;;;;;;6264666;22;20019;-74
2022/10/17 12:20:33;;;;;;;6.32;3.92;;;20.10;68.70;;;;;;6238526;22;20929;-73
2022/10/17 12:23:11;;;;;;;4.10;3.70;;;20.10;68.60;;;;;;6266065;22;20038;-73
2022/10/17 12:26:01;;;;;;;4.97;3.55;;;20.20;68.80;;;;;;6212249;22;20047;-73
2022/10/17 12:28:31;;;;;;;8.70;4.00;;;20.20;69.70;;;;;;6265080;22;20012;-73
2022/10/17 12:31:04;;;;;;;4.30;3.70;;;20.20;68.90;;;;;;6238965;22;20049;-76
2022/10/17 12:33:31;;;;;;;6.03;3.40;;;20.20;68.80;;;;;;6237585;22;20069;-74
2022/10/17 12:36:29;;;;;;;5.05;3.65;;;20.20;68.90;;;;;;6238635;22;20035;-74
2022/10/17 12:39:01;;;;;;;5.65;3.70;;;20.20;68.70;;;;;;6155363;22;20020;-76
2022/10/17 12:41:39;;;;;;;4.55;3.83;;;20.20;68.80;;;;;;6264587;22;20015;-78
2022/10/17 12:44:14;;;;;;;4.22;3.55;;;20.20;68.90;;;;;;6238709;22;20030;-78
2022/10/17 12:46:55;;;;;;;4.97;3.72;;;20.20;68.80;;;;;;6236657;22;20023;-73
2022/10/17 12:49:44;;;;;;;4.88;3.60;;;20.20;68.80;;;;;;6238457;22;20054;-75
2022/10/17 12:52:19;;;;;;;5.35;3.53;;;20.20;68.70;;;;;;6238526;22;20019;-77
2022/10/17 12:55:06;;;;;;;4.22;3.80;;;20.20;68.80;;;;;;6237347;22;20443;-78
2022/10/17 12:57:51;;;;;;;4.20;3.72;;;20.20;68.70;;;;;;6238940;22;20063;-72
2022/10/17 13:00:31;;;;;;;4.25;3.75;;;20.20;68.60;;;;;;6211593;22;20055;-76
2022/10/17 13:03:04;;;;;;;4.40;4.00;;;20.20;68.60;;;;;;6265024;22;20023;-76
2022/10/17 13:05:36;;;;;;;4.43;3.72;;;20.10;68.50;;;;;;6265813;22;20469;-74
2022/10/17 13:08:05;;;;;;;5.65;3.75;;;20.10;68.40;;;;;;6236694;22;20058;-74
2022/10/17 13:10:34;;;;;;;5.15;3.67;;;20.10;68.50;;;;;;6265310;22;20023;-74